sensor_id;sensor_type;location;lat;lon;timestamp;P1;durP1;ratioP1;P2;durP2;ratioP2
43823;SDS011;29470;53.550;9.926;2022-10-04T00:04:39;9.25;;;2.58;;
43823;SDS011;29470;53.550;9.926;2022-10-04T00:09:47;8.77;;;2.50;;
43823;SDS011;29470;53.550;9.926;2022-10-04T00:14:56;10.10;;;2.75;;
43823;SDS011;29470;53.550;9.926;2022-10-04T00:20:02;12.43;;;2.85;;
43823;SDS011;29470;53.550;9.926;2022-10-04T00:25:33;8.40;;;2.78;;
43823;SDS011;29470;53.550;9.926;2022-10-04T00:30:38;10.63;;;2.90;;
43823;SDS011;29470;53.550;9.926;2022-10-04T00:35:46;9.88;;;2.88;;
43823;SDS011;29470;53.550;9.926;2022-10-04T00:40:51;8.27;;;2.60;;
43823;SDS011;29470;53.550;9.926;2022-10-04T00:46:01;11.43;;;2.80;;
43823;SDS011;29470;53.550;9.926;2022-10-04T00:51:10;11.85;;;3.38;;
43823;SDS011;29470;53.550;9.926;2022-10-04T00:56:22;10.02;;;3.53;;
43823;SDS011;29470;53.550;9.926;2022-10-04T01:01:32;8.85;;;3.28;;
43823;SDS011;29470;53.550;9.926;2022-10-04T01:06:38;14.23;;;3.70;;
43823;SDS011;29470;53.550;9.926;2022-10-04T01:11:43;10.40;;;3.90;;
43823;SDS011;29470;53.550;9.926;2022-10-04T01:16:58;10.98;;;4.03;;
43823;SDS011;29470;53.550;9.926;2022-10-04T01:22:08;10.13;;;3.53;;
43823;SDS011;29470;53.550;9.926;2022-10-04T01:32:41;14.75;;;3.40;;
43823;SDS011;29470;53.550;9.926;2022-10-04T01:37:45;8.63;;;3.75;;
43823;SDS011;29470;53.550;9.926;2022-10-04T01:42:50;12.63;;;3.17;;
43823;SDS011;29470;53.550;9.926;2022-10-04T01:47:58;9.65;;;3.30;;
43823;SDS011;29470;53.550;9.926;2022-10-04T01:53:06;13.25;;;3.53;;
43823;SDS011;29470;53.550;9.926;2022-10-04T01:58:18;9.40;;;2.88;;
43823;SDS011;29470;53.550;9.926;2022-10-04T02:03:26;14.32;;;4.55;;
43823;SDS011;29470;53.550;9.926;2022-10-04T02:08:36;12.20;;;3.50;;
43823;SDS011;29470;53.550;9.926;2022-10-04T02:13:42;8.80;;;3.90;;
43823;SDS011;29470;53.550;9.926;2022-10-04T02:18:46;10.20;;;2.72;;
43823;SDS011;29470;53.550;9.926;2022-10-04T02:23:52;8.70;;;3.20;;
43823;SDS011;29470;53.550;9.926;2022-10-04T02:28:56;7.35;;;2.80;;
43823;SDS011;29470;53.550;9.926;2022-10-04T02:33:59;9.70;;;2.90;;
43823;SDS011;29470;53.550;9.926;2022-10-04T02:39:03;8.73;;;2.97;;
43823;SDS011;29470;53.550;9.926;2022-10-04T02:44:13;8.85;;;2.75;;
43823;SDS011;29470;53.550;9.926;2022-10-04T02:54:27;9.05;;;3.00;;
43823;SDS011;29470;53.550;9.926;2022-10-04T02:59:35;7.97;;;3.13;;
43823;SDS011;29470;53.550;9.926;2022-10-04T03:04:40;12.32;;;3.60;;
43823;SDS011;29470;53.550;9.926;2022-10-04T03:09:44;6.88;;;3.03;;
43823;SDS011;29470;53.550;9.926;2022-10-04T03:14:49;12.50;;;3.63;;
43823;SDS011;29470;53.550;9.926;2022-10-04T03:19:54;7.80;;;3.45;;
43823;SDS011;29470;53.550;9.926;2022-10-04T03:24:58;8.23;;;3.47;;
43823;SDS011;29470;53.550;9.926;2022-10-04T03:30:03;8.95;;;3.20;;
43823;SDS011;29470;53.550;9.926;2022-10-04T03:35:11;10.15;;;3.58;;
43823;SDS011;29470;53.550;9.926;2022-10-04T03:40:22;11.95;;;3.90;;
43823;SDS011;29470;53.550;9.926;2022-10-04T03:45:29;8.32;;;3.17;;
43823;SDS011;29470;53.550;9.926;2022-10-04T03:50:36;8.27;;;3.47;;
43823;SDS011;29470;53.550;9.926;2022-10-04T03:55:45;5.72;;;3.10;;
43823;SDS011;29470;53.550;9.926;2022-10-04T04:00:55;5.45;;;3.20;;
43823;SDS011;29470;53.550;9.926;2022-10-04T04:06:10;11.23;;;3.60;;
43823;SDS011;29470;53.550;9.926;2022-10-04T04:11:18;11.05;;;3.40;;
43823;SDS011;29470;53.550;9.926;2022-10-04T04:16:26;11.45;;;3.90;;
43823;SDS011;29470;53.550;9.926;2022-10-04T04:21:29;11.68;;;4.35;;
43823;SDS011;29470;53.550;9.926;2022-10-04T04:26:34;9.10;;;4.28;;
43823;SDS011;29470;53.550;9.926;2022-10-04T04:31:42;14.10;;;4.88;;
43823;SDS011;29470;53.550;9.926;2022-10-04T04:36:55;11.75;;;4.05;;
43823;SDS011;29470;53.550;9.926;2022-10-04T04:42:00;12.13;;;5.83;;
43823;SDS011;29470;53.550;9.926;2022-10-04T04:47:08;12.15;;;5.68;;
43823;SDS011;29470;53.550;9.926;2022-10-04T04:52:18;10.02;;;4.95;;
43823;SDS011;29470;53.550;9.926;2022-10-04T04:57:24;12.27;;;5.00;;
43823;SDS011;29470;53.550;9.926;2022-10-04T05:02:30;14.20;;;5.15;;
43823;SDS011;29470;53.550;9.926;2022-10-04T05:07:35;11.65;;;4.93;;
43823;SDS011;29470;53.550;9.926;2022-10-04T05:12:38;12.10;;;5.68;;
43823;SDS011;29470;53.550;9.926;2022-10-04T05:17:42;12.27;;;5.53;;
43823;SDS011;29470;53.550;9.926;2022-10-04T05:22:46;14.50;;;5.82;;
43823;SDS011;29470;53.550;9.926;2022-10-04T05:27:51;10.73;;;5.63;;
43823;SDS011;29470;53.550;9.926;2022-10-04T05:33:00;10.90;;;5.60;;
43823;SDS011;29470;53.550;9.926;2022-10-04T05:38:07;14.68;;;5.90;;
43823;SDS011;29470;53.550;9.926;2022-10-04T05:43:25;12.65;;;6.32;;
43823;SDS011;29470;53.550;9.926;2022-10-04T05:48:33;13.00;;;6.57;;
43823;SDS011;29470;53.550;9.926;2022-10-04T05:53:36;12.02;;;5.80;;
43823;SDS011;29470;53.550;9.926;2022-10-04T05:58:43;17.63;;;5.70;;
43823;SDS011;29470;53.550;9.926;2022-10-04T06:09:46;12.68;;;5.60;;
43823;SDS011;29470;53.550;9.926;2022-10-04T06:26:12;14.63;;;6.50;;
43823;SDS011;29470;53.550;9.926;2022-10-04T06:31:29;13.02;;;6.65;;
43823;SDS011;29470;53.550;9.926;2022-10-04T06:37:07;13.13;;;6.70;;
43823;SDS011;29470;53.550;9.926;2022-10-04T06:42:27;11.35;;;5.80;;
43823;SDS011;29470;53.550;9.926;2022-10-04T06:47:47;9.93;;;4.80;;
43823;SDS011;29470;53.550;9.926;2022-10-04T06:53:09;8.63;;;3.75;;
43823;SDS011;29470;53.550;9.926;2022-10-04T06:58:27;10.82;;;3.78;;
43823;SDS011;29470;53.550;9.926;2022-10-04T07:03:50;8.77;;;3.15;;
43823;SDS011;29470;53.550;9.926;2022-10-04T07:08:58;9.55;;;3.22;;
43823;SDS011;29470;53.550;9.926;2022-10-04T07:14:09;8.95;;;3.28;;
43823;SDS011;29470;53.550;9.926;2022-10-04T07:19:25;8.73;;;3.85;;
43823;SDS011;29470;53.550;9.926;2022-10-04T07:24:37;6.18;;;3.88;;
43823;SDS011;29470;53.550;9.926;2022-10-04T07:29:51;7.07;;;3.67;;
43823;SDS011;29470;53.550;9.926;2022-10-04T07:34:57;9.68;;;4.40;;
43823;SDS011;29470;53.550;9.926;2022-10-04T07:40:05;9.80;;;4.17;;
43823;SDS011;29470;53.550;9.926;2022-10-04T07:45:12;8.43;;;4.80;;
43823;SDS011;29470;53.550;9.926;2022-10-04T07:50:22;11.30;;;5.20;;
43823;SDS011;29470;53.550;9.926;2022-10-04T07:55:28;12.65;;;5.18;;
43823;SDS011;29470;53.550;9.926;2022-10-04T08:00:42;10.77;;;5.05;;
43823;SDS011;29470;53.550;9.926;2022-10-04T08:05:51;12.50;;;6.03;;
43823;SDS011;29470;53.550;9.926;2022-10-04T08:11:06;12.98;;;5.68;;
43823;SDS011;29470;53.550;9.926;2022-10-04T08:16:24;10.80;;;5.90;;
43823;SDS011;29470;53.550;9.926;2022-10-04T08:21:38;21.50;;;9.48;;
43823;SDS011;29470;53.550;9.926;2022-10-04T08:26:53;15.18;;;6.90;;
43823;SDS011;29470;53.550;9.926;2022-10-04T08:32:04;14.80;;;6.05;;
43823;SDS011;29470;53.550;9.926;2022-10-04T08:37:27;13.15;;;6.03;;
43823;SDS011;29470;53.550;9.926;2022-10-04T08:59:50;14.95;;;5.90;;
43823;SDS011;29470;53.550;9.926;2022-10-04T09:05:33;12.73;;;6.38;;
43823;SDS011;29470;53.550;9.926;2022-10-04T09:10:58;9.80;;;5.60;;
43823;SDS011;29470;53.550;9.926;2022-10-04T09:16:25;28.45;;;6.70;;
43823;SDS011;29470;53.550;9.926;2022-10-04T09:21:40;13.20;;;5.70;;
43823;SDS011;29470;53.550;9.926;2022-10-04T09:32:48;22.63;;;6.10;;
43823;SDS011;29470;53.550;9.926;2022-10-04T09:38:18;50.72;;;8.90;;
43823;SDS011;29470;53.550;9.926;2022-10-04T09:43:47;22.67;;;6.00;;
43823;SDS011;29470;53.550;9.926;2022-10-04T09:49:04;12.52;;;5.07;;
43823;SDS011;29470;53.550;9.926;2022-10-04T09:54:42;14.32;;;5.00;;
43823;SDS011;29470;53.550;9.926;2022-10-04T09:59:57;11.70;;;5.13;;
43823;SDS011;29470;53.550;9.926;2022-10-04T10:05:19;14.50;;;6.18;;
43823;SDS011;29470;53.550;9.926;2022-10-04T10:10:32;9.80;;;4.63;;
43823;SDS011;29470;53.550;9.926;2022-10-04T10:16:03;12.05;;;5.00;;
43823;SDS011;29470;53.550;9.926;2022-10-04T10:21:28;15.32;;;6.10;;
43823;SDS011;29470;53.550;9.926;2022-10-04T10:31:58;14.63;;;5.30;;
43823;SDS011;29470;53.550;9.926;2022-10-04T10:37:24;19.88;;;5.90;;
43823;SDS011;29470;53.550;9.926;2022-10-04T10:48:04;23.95;;;5.90;;
43823;SDS011;29470;53.550;9.926;2022-10-04T10:53:27;12.77;;;5.18;;
43823;SDS011;29470;53.550;9.926;2022-10-04T10:58:56;13.93;;;6.07;;
43823;SDS011;29470;53.550;9.926;2022-10-04T11:04:26;12.27;;;5.72;;
43823;SDS011;29470;53.550;9.926;2022-10-04T11:15:38;14.80;;;6.65;;
43823;SDS011;29470;53.550;9.926;2022-10-04T11:32:16;12.55;;;5.00;;
43823;SDS011;29470;53.550;9.926;2022-10-04T11:37:45;14.65;;;4.40;;
43823;SDS011;29470;53.550;9.926;2022-10-04T11:43:03;17.23;;;5.18;;
43823;SDS011;29470;53.550;9.926;2022-10-04T11:48:21;7.47;;;4.05;;
43823;SDS011;29470;53.550;9.926;2022-10-04T11:59:19;14.02;;;3.33;;
43823;SDS011;29470;53.550;9.926;2022-10-04T12:04:39;9.43;;;3.05;;
43823;SDS011;29470;53.550;9.926;2022-10-04T12:09:58;8.65;;;3.40;;
43823;SDS011;29470;53.550;9.926;2022-10-04T12:21:02;19.05;;;3.75;;
43823;SDS011;29470;53.550;9.926;2022-10-04T12:26:25;9.85;;;3.95;;
43823;SDS011;29470;53.550;9.926;2022-10-04T12:31:41;9.77;;;3.45;;
43823;SDS011;29470;53.550;9.926;2022-10-04T12:36:54;10.20;;;3.55;;
43823;SDS011;29470;53.550;9.926;2022-10-04T12:42:15;16.25;;;4.00;;
43823;SDS011;29470;53.550;9.926;2022-10-04T12:47:41;12.68;;;3.58;;
43823;SDS011;29470;53.550;9.926;2022-10-04T12:52:54;10.95;;;3.65;;
43823;SDS011;29470;53.550;9.926;2022-10-04T12:58:09;9.23;;;2.70;;
43823;SDS011;29470;53.550;9.926;2022-10-04T13:03:27;19.27;;;4.57;;
43823;SDS011;29470;53.550;9.926;2022-10-04T13:08:43;7.15;;;3.10;;
43823;SDS011;29470;53.550;9.926;2022-10-04T13:19:33;7.13;;;3.35;;
43823;SDS011;29470;53.550;9.926;2022-10-04T13:24:44;10.80;;;3.80;;
43823;SDS011;29470;53.550;9.926;2022-10-04T13:30:00;10.82;;;4.63;;
43823;SDS011;29470;53.550;9.926;2022-10-04T13:35:12;14.35;;;5.40;;
43823;SDS011;29470;53.550;9.926;2022-10-04T13:40:28;10.98;;;4.75;;
43823;SDS011;29470;53.550;9.926;2022-10-04T13:45:40;6.63;;;3.08;;
43823;SDS011;29470;53.550;9.926;2022-10-04T13:50:55;5.72;;;2.70;;
43823;SDS011;29470;53.550;9.926;2022-10-04T13:56:14;9.18;;;3.35;;
43823;SDS011;29470;53.550;9.926;2022-10-04T14:01:43;7.07;;;3.27;;
43823;SDS011;29470;53.550;9.926;2022-10-04T14:07:20;7.53;;;3.10;;
43823;SDS011;29470;53.550;9.926;2022-10-04T14:12:40;8.40;;;2.78;;
43823;SDS011;29470;53.550;9.926;2022-10-04T14:23:45;9.48;;;2.97;;
43823;SDS011;29470;53.550;9.926;2022-10-04T14:34:59;12.82;;;5.15;;
43823;SDS011;29470;53.550;9.926;2022-10-04T14:40:19;6.82;;;2.90;;
43823;SDS011;29470;53.550;9.926;2022-10-04T14:45:48;6.38;;;2.90;;
43823;SDS011;29470;53.550;9.926;2022-10-04T14:51:08;7.68;;;2.80;;
43823;SDS011;29470;53.550;9.926;2022-10-04T14:56:37;8.35;;;3.20;;
43823;SDS011;29470;53.550;9.926;2022-10-04T15:02:06;8.35;;;3.88;;
43823;SDS011;29470;53.550;9.926;2022-10-04T15:07:28;8.77;;;3.05;;
43823;SDS011;29470;53.550;9.926;2022-10-04T15:12:56;10.70;;;3.47;;
43823;SDS011;29470;53.550;9.926;2022-10-04T15:18:20;13.98;;;3.88;;
43823;SDS011;29470;53.550;9.926;2022-10-04T15:34:04;7.97;;;3.00;;
43823;SDS011;29470;53.550;9.926;2022-10-04T15:39:29;4.55;;;2.67;;
43823;SDS011;29470;53.550;9.926;2022-10-04T15:45:11;10.40;;;5.20;;
43823;SDS011;29470;53.550;9.926;2022-10-04T15:50:31;10.70;;;4.53;;
43823;SDS011;29470;53.550;9.926;2022-10-04T15:55:50;7.75;;;3.50;;
43823;SDS011;29470;53.550;9.926;2022-10-04T16:01:10;8.57;;;3.20;;
43823;SDS011;29470;53.550;9.926;2022-10-04T16:06:39;6.80;;;3.08;;
43823;SDS011;29470;53.550;9.926;2022-10-04T16:11:55;12.80;;;3.67;;
43823;SDS011;29470;53.550;9.926;2022-10-04T16:28:36;10.75;;;3.58;;
43823;SDS011;29470;53.550;9.926;2022-10-04T16:34:12;7.10;;;3.97;;
43823;SDS011;29470;53.550;9.926;2022-10-04T16:39:33;10.07;;;4.55;;
43823;SDS011;29470;53.550;9.926;2022-10-04T16:44:58;15.15;;;6.45;;
43823;SDS011;29470;53.550;9.926;2022-10-04T16:55:55;7.22;;;4.13;;
43823;SDS011;29470;53.550;9.926;2022-10-04T17:01:32;7.13;;;4.43;;
43823;SDS011;29470;53.550;9.926;2022-10-04T17:06:46;11.93;;;6.55;;
43823;SDS011;29470;53.550;9.926;2022-10-04T17:12:00;11.27;;;7.25;;
43823;SDS011;29470;53.550;9.926;2022-10-04T17:17:22;12.45;;;7.03;;
43823;SDS011;29470;53.550;9.926;2022-10-04T17:22:57;7.07;;;4.70;;
43823;SDS011;29470;53.550;9.926;2022-10-04T17:28:16;9.80;;;5.70;;
43823;SDS011;29470;53.550;9.926;2022-10-04T17:33:33;16.58;;;11.10;;
43823;SDS011;29470;53.550;9.926;2022-10-04T17:38:48;13.88;;;7.30;;
43823;SDS011;29470;53.550;9.926;2022-10-04T17:44:05;10.88;;;6.20;;
43823;SDS011;29470;53.550;9.926;2022-10-04T17:49:27;12.77;;;5.05;;
43823;SDS011;29470;53.550;9.926;2022-10-04T17:54:57;12.32;;;6.18;;
43823;SDS011;29470;53.550;9.926;2022-10-04T18:00:20;11.23;;;6.22;;
43823;SDS011;29470;53.550;9.926;2022-10-04T18:05:27;10.48;;;5.25;;
43823;SDS011;29470;53.550;9.926;2022-10-04T18:10:34;14.47;;;8.27;;
43823;SDS011;29470;53.550;9.926;2022-10-04T18:15:42;10.43;;;5.88;;
43823;SDS011;29470;53.550;9.926;2022-10-04T18:21:05;10.38;;;6.57;;
43823;SDS011;29470;53.550;9.926;2022-10-04T18:26:24;11.82;;;6.90;;
43823;SDS011;29470;53.550;9.926;2022-10-04T18:31:39;10.75;;;7.13;;
43823;SDS011;29470;53.550;9.926;2022-10-04T18:36:48;12.07;;;6.68;;
43823;SDS011;29470;53.550;9.926;2022-10-04T18:42:06;11.60;;;6.22;;
43823;SDS011;29470;53.550;9.926;2022-10-04T18:47:31;10.57;;;7.22;;
43823;SDS011;29470;53.550;9.926;2022-10-04T18:52:43;13.73;;;7.70;;
43823;SDS011;29470;53.550;9.926;2022-10-04T18:57:57;12.73;;;5.80;;
43823;SDS011;29470;53.550;9.926;2022-10-04T19:03:31;21.75;;;13.52;;
43823;SDS011;29470;53.550;9.926;2022-10-04T19:08:43;12.15;;;7.05;;
43823;SDS011;29470;53.550;9.926;2022-10-04T19:13:56;10.55;;;6.90;;
43823;SDS011;29470;53.550;9.926;2022-10-04T19:19:15;8.13;;;5.82;;
43823;SDS011;29470;53.550;9.926;2022-10-04T19:24:39;9.40;;;6.05;;
43823;SDS011;29470;53.550;9.926;2022-10-04T19:30:09;11.73;;;5.43;;
43823;SDS011;29470;53.550;9.926;2022-10-04T19:35:25;10.77;;;6.70;;
43823;SDS011;29470;53.550;9.926;2022-10-04T19:41:01;9.25;;;5.25;;
43823;SDS011;29470;53.550;9.926;2022-10-04T19:51:49;10.23;;;5.85;;
43823;SDS011;29470;53.550;9.926;2022-10-04T19:57:03;11.20;;;5.13;;
43823;SDS011;29470;53.550;9.926;2022-10-04T20:02:16;10.57;;;5.55;;
43823;SDS011;29470;53.550;9.926;2022-10-04T20:07:24;13.93;;;5.90;;
43823;SDS011;29470;53.550;9.926;2022-10-04T20:12:31;9.23;;;5.35;;
43823;SDS011;29470;53.550;9.926;2022-10-04T20:17:37;11.00;;;5.20;;
43823;SDS011;29470;53.550;9.926;2022-10-04T20:28:03;13.00;;;5.93;;
43823;SDS011;29470;53.550;9.926;2022-10-04T20:33:09;12.88;;;6.43;;
43823;SDS011;29470;53.550;9.926;2022-10-04T20:38:15;9.25;;;5.80;;
43823;SDS011;29470;53.550;9.926;2022-10-04T20:43:33;10.57;;;6.50;;
43823;SDS011;29470;53.550;9.926;2022-10-04T20:48:56;9.95;;;5.43;;
43823;SDS011;29470;53.550;9.926;2022-10-04T20:53:59;8.65;;;5.40;;
43823;SDS011;29470;53.550;9.926;2022-10-04T20:59:04;9.55;;;5.78;;
43823;SDS011;29470;53.550;9.926;2022-10-04T21:04:17;9.40;;;5.47;;
43823;SDS011;29470;53.550;9.926;2022-10-04T21:09:30;13.95;;;5.70;;
43823;SDS011;29470;53.550;9.926;2022-10-04T21:14:34;13.50;;;6.20;;
43823;SDS011;29470;53.550;9.926;2022-10-04T21:19:43;9.68;;;5.85;;
43823;SDS011;29470;53.550;9.926;2022-10-04T21:24:52;14.45;;;7.07;;
43823;SDS011;29470;53.550;9.926;2022-10-04T21:29:56;11.10;;;5.93;;
43823;SDS011;29470;53.550;9.926;2022-10-04T21:35:02;9.50;;;5.88;;
43823;SDS011;29470;53.550;9.926;2022-10-04T21:40:07;10.40;;;5.53;;
43823;SDS011;29470;53.550;9.926;2022-10-04T21:45:10;9.32;;;5.03;;
43823;SDS011;29470;53.550;9.926;2022-10-04T21:50:14;6.85;;;5.13;;
43823;SDS011;29470;53.550;9.926;2022-10-04T21:55:17;9.80;;;5.35;;
43823;SDS011;29470;53.550;9.926;2022-10-04T22:00:31;8.25;;;5.38;;
43823;SDS011;29470;53.550;9.926;2022-10-04T22:05:35;8.18;;;5.20;;
43823;SDS011;29470;53.550;9.926;2022-10-04T22:10:38;9.90;;;5.72;;
43823;SDS011;29470;53.550;9.926;2022-10-04T22:15:41;11.48;;;5.70;;
43823;SDS011;29470;53.550;9.926;2022-10-04T22:20:46;11.00;;;6.25;;
43823;SDS011;29470;53.550;9.926;2022-10-04T22:25:49;9.57;;;5.45;;
43823;SDS011;29470;53.550;9.926;2022-10-04T22:30:54;10.27;;;5.93;;
43823;SDS011;29470;53.550;9.926;2022-10-04T22:36:03;14.38;;;6.07;;
43823;SDS011;29470;53.550;9.926;2022-10-04T22:41:15;10.20;;;5.68;;
43823;SDS011;29470;53.550;9.926;2022-10-04T22:46:19;10.07;;;5.78;;
43823;SDS011;29470;53.550;9.926;2022-10-04T22:51:25;10.25;;;5.25;;
43823;SDS011;29470;53.550;9.926;2022-10-04T22:56:29;11.18;;;5.70;;
43823;SDS011;29470;53.550;9.926;2022-10-04T23:01:32;9.02;;;5.18;;
43823;SDS011;29470;53.550;9.926;2022-10-04T23:06:36;8.98;;;5.28;;
43823;SDS011;29470;53.550;9.926;2022-10-04T23:11:39;11.32;;;5.22;;
43823;SDS011;29470;53.550;9.926;2022-10-04T23:16:42;12.23;;;5.35;;
43823;SDS011;29470;53.550;9.926;2022-10-04T23:21:47;14.30;;;6.70;;
43823;SDS011;29470;53.550;9.926;2022-10-04T23:26:51;12.10;;;5.88;;
43823;SDS011;29470;53.550;9.926;2022-10-04T23:31:56;10.77;;;5.38;;
43823;SDS011;29470;53.550;9.926;2022-10-04T23:37:01;10.80;;;5.47;;
43823;SDS011;29470;53.550;9.926;2022-10-04T23:42:06;12.63;;;6.18;;
43823;SDS011;29470;53.550;9.926;2022-10-04T23:47:17;11.05;;;5.22;;
43823;SDS011;29470;53.550;9.926;2022-10-04T23:52:23;10.98;;;5.57;;
43823;SDS011;29470;53.550;9.926;2022-10-04T23:57:27;10.63;;;5.13;;
